Airfield :
LOGIN :

Register | Disclaimer

   EN    FR    IT 

 










Legend :    VFR   Marginal VFR   IFR   Intensive IFR   Very Intensive IFR
Visi :
Ceiling :
>= 8 km
>= 3000ft
5 to 8 km
1000 to 3000 ft
1500m to 5 km
500 to 1000 ft
800 to 1500m
200 to 500 ft
< 800m
< 200 ft
Symbols :   Thunderstorms  Fog  Heavy snow  Heavy precipitations  Wind > 20 kt
SIGMETs :     Misc.  Thunderstorms  Icing  Turbulence  Mountain Waves  Volcanic Ashes







- Airport Elevation : 79 ft
- IATA code : SPU


LDSP - Split

CURRENT METAR :
  • 281630Z 23010KT CAVOK 28/16 Q1012 NOSIG

EXPIRED METARs :
  • 281600Z 23007KT CAVOK 29/15 Q1012 NOSIG
  • 281530Z 22008KT CAVOK 30/14 Q1012 NOSIG
  • 281500Z 21010KT CAVOK 29/14 Q1012 NOSIG
  • 281430Z 22011KT CAVOK 29/13 Q1012 NOSIG
  • 281400Z 23011KT CAVOK 29/16 Q1012 NOSIG

TAF TAF LDSP
Valid from the 28 at 06:00 until the 29 at 06:00 UTC


280525Z 2806/2906 VRB02KT 9999 SCT050 TX30/2813Z TN21/2903Z
BECMG 2808/2810 23012KT
BECMG 2817/2819 VRB02KT
No reported NOTAMs for that airfield.



MET'MAP, your aeronautical weather chart ! - Copyright ORBIFLY December 2007 - Disclaimer

ORBIFLY MET'MAP TEAM :

Programming & Development : Alexandra Zaïnal
Concept & Development : Baudouin d'Aumeries
Co-Development & Prog : Marc-Olivier Méhu
Technical & hardware support : Manuel Goepfert

Contact : metmap@orbifly.com




SOURCES & CREDITS :

   NOAA